Alpine, Mississippi
Current Conditions -  °F | °C
As of 5:53 AM on Saturday 20 Dec 2014 (Local Time) from KTUP Reporting Station
Clear Clear  
Wind Chill: 26°   Ceiling: Unl
Heat Index: 32°   Visibility: 8mi
Dew Point: 30°   Wind: 6mph
Humidity: 92%   Direction: 50°NE
Pressure: 30.22"   Gusts: NA
Location:  34.4333°N, 88.8629°W
Report Text: KTUP 201153Z 05005KT 8SM CLR 00/M01 A3022 RMK AO2 SLP236 70001 T00001011 10044 20000 53005
Loading
Personal Weather Stations






























Interactive Weather Map New forecast layout! Learn more

10-Day Weather Forecast

Advertisements
Track Severe Weather on mobile